This demonstration page uses our WeatherBlox Daily Observations layout. Learn more.

36.17497, -115.13722

Hourly Observations for October 3, 2018

Temp ( °F °C ) Dew Point ( °F °C ) Humidity (%) Winds ( mph kmh ) Pressure ( in mb ) Visibility ( mi km ) Precip ( " mm )
12:53 am 00:53 Clear 77 25 57 13.9 50 50 S 7 11 29.83 1010 10 16.09344 0 0
1:53 am 01:53 Mostly Cloudy 77 25 54 12.2 45 45 S 9 15 29.83 1010 10 16.09344 0 0
2:53 am 02:53 Mostly Cloudy 76 24.4 54 12.2 47 47 S 14 22 29.83 1010 10 16.09344 0 0
3:53 am 03:53 Partly Cloudy 75 23.9 53 11.7 46 46 S 10 17 29.83 1010 10 16.09344 0 0
4:53 am 04:53 Mostly Cloudy 74 23.3 53 11.7 48 48 SE 3 6 29.85 1011 10 16.09344 0 0
5:53 am 05:53 Clear 73 22.8 52 11.1 48 48 SSW 3 6 29.85 1011 10 16.09344 0 0
6:53 am 06:53 Sunny 71 21.7 52 11.1 51 51 Calm 29.85 1011 10 16.09344 0 0
7:53 am 07:53 Mostly Sunny 74 23.3 53 11.7 48 48 SSE 9 15 29.88 1012 10 16.09344 0 0
8:53 am 08:53 Mostly Sunny 76 24.4 53 11.7 45 45 SSE 12 19 29.91 1013 10 16.09344 0 0
9:53 am 09:53 Sunny 80 26.7 53 11.7 39 39 S 10 17 29.91 1013 10 16.09344 0 0
10:53 am 10:53 Sunny 82 27.8 53 11.7 37 37 S 15 24 29.88 1012 10 16.09344 0 0
11:53 am 11:53 Sunny 83 28.3 53 11.7 36 36 S 15 24 29.88 1012 10 16.09344 0 0
12:53 pm 12:53 Mostly Sunny 83 28.3 53 11.7 36 36 SSE 8 13 29.83 1010 10 16.09344 0 0
1:53 pm 13:53 Partly Cloudy 85 29.4 48 8.9 28 28 SW 10 17 29.8 1009 10 16.09344 0 0
2:53 pm 14:53 Mostly Sunny 85 29.4 50 10 30 30 SE 13 20 29.77 1008 10 16.09344 0 0
3:53 pm 15:53 Mostly Sunny 87 30.6 40 4.4 19 19 SW 15 24 29.77 1008 10 16.09344 0 0
4:53 pm 16:53 Sunny 85 29.4 42 5.6 22 22 SW 18 30 29.77 1008 10 16.09344 0 0
5:53 pm 17:53 Sunny 83 28.3 44 6.7 25 25 WSW 12 19 29.77 1008 10 16.09344 0 0
6:53 pm 18:53 Clear 82 27.8 44 6.7 26 26 SW 10 17 29.77 1008 10 16.09344 0 0
7:53 pm 19:53 Clear 81 27.2 44 6.7 27 27 SSW 15 24 29.8 1009 10 16.09344 0 0
8:53 pm 20:53 Clear 79 26.1 47 8.3 32 32 SW 10 17 29.8 1009 10 16.09344 0 0
9:53 pm 21:53 Clear 77 25 48 8.9 36 36 WSW 5 7 29.8 1009 10 16.09344 0 0
10:53 pm 22:53 Clear 77 25 49 9.4 37 37 SSW 8 13 29.8 1009 10 16.09344 0 0
11:53 pm 23:53 Clear 76 24.4 49 9.4 39 39 SSW 6 9 29.8 1009 10 16.09344 0 0

Powered by AerisWeather